Time;durP1;ratioP1;P1;durP2;ratioP2;P2;SDS_P1;SDS_P2;PMS_P1;PMS_P2;Temp;Humidity;BMP_temperature;BMP_pressure;BME280_temperature;BME280_humidity;BME280_pressure;Samples;Min_cycle;Max_cycle;Signal;HPM_P1;HPM_P2
2022/12/11 00:00:07;;;;;;;22.93;16.27;;;-1.40;99.90;;;;;;5032339;28;20201;-70
2022/12/11 00:02:32;;;;;;;24.07;16.03;;;-1.30;99.90;;;;;;5032260;28;20198;-69
2022/12/11 00:04:58;;;;;;;20.47;14.73;;;-1.40;99.90;;;;;;5032195;28;20973;-70
2022/12/11 00:07:23;;;;;;;21.07;16.13;;;-1.40;99.90;;;;;;5032023;28;20652;-70
2022/12/11 00:09:49;;;;;;;17.63;14.10;;;-1.40;99.90;;;;;;5031656;28;20255;-70
2022/12/11 00:12:14;;;;;;;18.83;14.30;;;-1.40;99.90;;;;;;5032110;28;20174;-70
2022/12/11 00:14:40;;;;;;;19.87;14.83;;;-1.40;99.90;;;;;;5032109;28;20170;-70
2022/12/11 00:17:05;;;;;;;24.77;15.13;;;-1.40;99.90;;;;;;5032148;28;20253;-69
2022/12/11 00:19:31;;;;;;;17.97;12.73;;;-1.50;99.90;;;;;;5031741;28;20610;-70
2022/12/11 00:21:56;;;;;;;20.23;13.20;;;-1.40;99.90;;;;;;5034914;28;20166;-70
2022/12/11 00:24:22;;;;;;;21.37;14.70;;;-1.50;99.90;;;;;;5036252;28;20177;-70
2022/12/11 00:26:47;;;;;;;28.43;18.30;;;-1.60;99.90;;;;;;5036021;28;20231;-70
2022/12/11 00:29:13;;;;;;;23.00;14.93;;;-1.60;99.90;;;;;;5035656;28;20251;-70
2022/12/11 00:31:40;;;;;;;20.93;14.40;;;-1.60;99.90;;;;;;5036053;28;20162;-70
2022/12/11 00:34:06;;;;;;;22.50;15.73;;;-1.50;99.90;;;;;;5035912;28;20451;-70
2022/12/11 00:36:32;;;;;;;25.77;16.80;;;-1.70;99.90;;;;;;5035834;28;20452;-70
2022/12/11 00:38:57;;;;;;;24.30;16.20;;;-1.60;99.90;;;;;;5035617;28;20198;-70
2022/12/11 00:41:23;;;;;;;23.40;14.40;;;-1.60;99.90;;;;;;5035768;28;20190;-70
2022/12/11 00:43:48;;;;;;;22.90;14.87;;;-1.60;99.90;;;;;;5035639;28;20206;-70
2022/12/11 00:46:14;;;;;;;25.97;17.10;;;-1.60;99.90;;;;;;5035751;28;20189;-70
2022/12/11 00:48:40;;;;;;;22.80;15.77;;;-2.00;99.90;;;;;;5035380;28;20591;-70
2022/12/11 00:51:06;;;;;;;28.07;16.60;;;-1.50;99.90;;;;;;5035467;28;20221;-70
2022/12/11 00:53:32;;;;;;;27.80;17.47;;;-1.40;99.90;;;;;;5035555;28;20174;-70
2022/12/11 00:55:57;;;;;;;26.57;16.60;;;-1.20;99.90;;;;;;5035576;28;20494;-70
2022/12/11 00:58:23;;;;;;;24.53;16.07;;;-1.30;99.90;;;;;;5035098;28;20174;-70
2022/12/11 01:00:48;;;;;;;26.53;16.57;;;-1.30;99.90;;;;;;5035398;28;20198;-70
2022/12/11 01:03:15;;;;;;;26.63;16.07;;;-1.20;99.90;;;;;;5035366;28;20201;-70
2022/12/11 01:05:49;;;;;;;24.00;15.77;;;-1.10;99.90;;;;;;5035226;28;20174;-70
2022/12/11 01:08:15;;;;;;;21.37;14.97;;;-1.00;99.90;;;;;;5034940;28;20452;-70
2022/12/11 01:10:40;;;;;;;23.73;15.50;;;-0.90;99.90;;;;;;5035079;28;20505;-70
2022/12/11 01:13:06;;;;;;;24.00;16.53;;;-0.80;99.90;;;;;;5035416;28;20273;-70
2022/12/11 01:15:37;;;;;;;22.20;15.40;;;-0.80;99.90;;;;;;5035090;28;20170;-70
2022/12/11 01:18:03;;;;;;;25.57;17.30;;;-0.90;99.90;;;;;;5035144;28;20190;-70
2022/12/11 01:20:29;;;;;;;29.10;16.20;;;-0.90;99.90;;;;;;5034746;28;20476;-70
2022/12/11 01:22:56;;;;;;;24.40;15.00;;;-0.70;99.90;;;;;;5034924;28;20731;-70
2022/12/11 01:25:22;;;;;;;24.90;16.67;;;-0.70;99.90;;;;;;5034927;28;20185;-70
2022/12/11 01:27:50;;;;;;;32.50;21.30;;;-0.70;99.90;;;;;;5034892;28;20413;-70
2022/12/11 01:30:16;;;;;;;23.07;16.90;;;-0.70;99.90;;;;;;5034430;28;20448;-70
2022/12/11 01:32:42;;;;;;;25.73;17.97;;;-0.70;99.90;;;;;;5033812;28;20413;-70
2022/12/11 01:35:08;;;;;;;23.30;15.43;;;-0.70;99.90;;;;;;5034726;28;20435;-71
2022/12/11 01:37:33;;;;;;;22.30;14.97;;;-0.60;99.90;;;;;;5034676;28;20257;-70
2022/12/11 01:40:00;;;;;;;20.70;15.90;;;-0.60;99.90;;;;;;5034457;28;20988;-70
2022/12/11 01:42:28;;;;;;;25.60;16.93;;;-0.50;99.90;;;;;;5034553;28;20240;-70
2022/12/11 01:45:20;;;;;;;20.50;15.60;;;-0.50;99.90;;;;;;5034843;28;20419;-70
2022/12/11 01:47:48;;;;;;;24.30;15.87;;;-0.50;99.90;;;;;;5034519;28;20401;-71
2022/12/11 01:50:14;;;;;;;23.77;15.60;;;-0.50;99.90;;;;;;5034110;28;20845;-71
2022/12/11 01:52:41;;;;;;;25.90;16.93;;;-0.50;99.90;;;;;;5034457;28;20421;-71
2022/12/11 01:55:08;;;;;;;19.57;15.00;;;-0.30;99.90;;;;;;5034542;28;20417;-70
2022/12/11 01:57:35;;;;;;;22.80;16.03;;;-0.20;99.90;;;;;;5034361;28;20424;-71
2022/12/11 02:00:01;;;;;;;23.33;16.00;;;-0.30;99.90;;;;;;5034024;28;20524;-70
2022/12/11 02:02:30;;;;;;;24.53;16.20;;;-0.30;99.90;;;;;;5034237;28;20548;-71
2022/12/11 02:04:55;;;;;;;22.37;14.37;;;-0.20;99.90;;;;;;5034338;28;20174;-71
2022/12/11 02:07:22;;;;;;;21.10;15.87;;;-0.20;99.90;;;;;;5034207;28;20432;-70
2022/12/11 02:09:48;;;;;;;24.87;16.90;;;-0.20;99.90;;;;;;5033813;28;20289;-70
2022/12/11 02:12:56;;;;;;;20.83;15.30;;;-0.20;99.90;;;;;;5034058;28;20442;-70
2022/12/11 02:15:35;;;;;;;18.20;13.03;;;-0.10;99.90;;;;;;5004978;28;20650;-70
2022/12/11 02:18:09;;;;;;;19.87;13.30;;;-0.10;99.90;;;;;;5034006;28;20468;-70
2022/12/11 02:20:50;;;;;;;20.60;14.33;;;0.00;99.90;;;;;;5033826;28;20468;-70
2022/12/11 02:23:42;;;;;;;23.83;15.00;;;0.10;99.90;;;;;;5033887;28;20543;-70
2022/12/11 02:26:30;;;;;;;20.40;14.03;;;0.00;99.90;;;;;;5033846;28;20945;-71
2022/12/11 02:29:29;;;;;;;19.87;15.00;;;0.00;99.90;;;;;;5033460;28;20416;-71
2022/12/11 02:32:07;;;;;;;22.37;14.23;;;0.00;99.90;;;;;;5029782;28;20429;-70
2022/12/11 02:34:40;;;;;;;20.93;13.93;;;0.00;99.90;;;;;;5033723;28;20972;-70
2022/12/11 02:37:11;;;;;;;16.77;12.27;;;0.00;99.90;;;;;;5033621;28;20401;-70
2022/12/11 02:39:41;;;;;;;16.50;11.63;;;-0.10;99.90;;;;;;5033241;28;20428;-70
2022/12/11 02:42:09;;;;;;;17.33;11.87;;;0.00;99.90;;;;;;5033414;28;20409;-70
2022/12/11 02:44:36;;;;;;;16.63;10.83;;;-0.10;99.90;;;;;;5033351;28;20423;-70
2022/12/11 02:47:06;;;;;;;18.73;12.10;;;-0.10;99.90;;;;;;5033354;28;20421;-70
2022/12/11 02:49:33;;;;;;;16.60;10.33;;;0.00;99.90;;;;;;5033069;28;21021;-70
2022/12/11 02:52:02;;;;;;;12.00;10.00;;;0.00;99.90;;;;;;5032748;28;20429;-70
2022/12/11 02:54:32;;;;;;;16.80;11.93;;;0.20;99.90;;;;;;5033268;28;20456;-70
2022/12/11 02:57:09;;;;;;;14.20;10.83;;;0.20;99.90;;;;;;5033106;28;20424;-70
2022/12/11 02:59:38;;;;;;;14.00;10.80;;;0.20;99.90;;;;;;5032887;28;20475;-70
2022/12/11 03:02:04;;;;;;;12.90;9.83;;;0.30;99.90;;;;;;5033174;28;20771;-70
2022/12/11 03:04:30;;;;;;;13.40;10.27;;;0.20;99.90;;;;;;5033095;28;20421;-70
2022/12/11 03:07:01;;;;;;;21.00;13.50;;;0.30;99.90;;;;;;5033121;28;20787;-70
2022/12/11 03:09:27;;;;;;;20.27;14.23;;;0.30;99.90;;;;;;5032467;28;20830;-70
2022/12/11 03:11:52;;;;;;;17.47;14.20;;;0.30;99.90;;;;;;5032969;28;20509;-70
2022/12/11 03:14:18;;;;;;;21.53;14.23;;;0.30;99.90;;;;;;5033026;28;20214;-70
2022/12/11 03:16:59;;;;;;;19.13;13.47;;;0.30;99.90;;;;;;5033015;28;20699;-70
2022/12/11 03:19:59;;;;;;;20.87;15.60;;;0.20;99.90;;;;;;5032429;28;20240;-70
2022/12/11 03:22:51;;;;;;;20.80;14.13;;;0.20;99.90;;;;;;5029676;28;20882;-70
2022/12/11 03:25:22;;;;;;;15.00;12.07;;;0.20;99.90;;;;;;5032867;28;20792;-70
2022/12/11 03:28:10;;;;;;;19.80;13.07;;;0.30;99.90;;;;;;5032757;28;20452;-70
2022/12/11 03:30:37;;;;;;;21.17;15.07;;;0.30;99.90;;;;;;5032570;28;20437;-70
2022/12/11 03:33:07;;;;;;;18.93;12.47;;;0.30;99.90;;;;;;5032652;28;20424;-70
2022/12/11 03:35:35;;;;;;;20.00;13.33;;;0.20;99.90;;;;;;5032680;28;20432;-70
2022/12/11 03:38:07;;;;;;;15.70;11.67;;;0.20;99.90;;;;;;5032472;28;20482;-70
2022/12/11 03:40:34;;;;;;;16.20;10.80;;;0.20;99.90;;;;;;5032133;28;20443;-70
2022/12/11 03:43:00;;;;;;;16.63;12.27;;;0.10;99.90;;;;;;5032377;28;20901;-70
2022/12/11 03:45:28;;;;;;;15.83;10.90;;;0.10;99.90;;;;;;5032627;28;20421;-70
2022/12/11 03:47:56;;;;;;;14.10;11.50;;;0.00;99.90;;;;;;5032369;28;20521;-70
2022/12/11 03:50:23;;;;;;;15.40;11.90;;;-0.20;99.90;;;;;;5032083;28;20519;-70
2022/12/11 03:52:50;;;;;;;13.33;9.80;;;-0.20;99.90;;;;;;5032239;28;20423;-70
2022/12/11 03:55:17;;;;;;;14.43;11.13;;;-0.20;99.90;;;;;;5031626;28;20810;-69
2022/12/11 03:57:43;;;;;;;15.03;10.47;;;-0.20;99.90;;;;;;5032213;28;20471;-71
2022/12/11 04:00:12;;;;;;;18.63;12.70;;;-0.10;99.90;;;;;;5030324;28;20457;-69
2022/12/11 04:02:39;;;;;;;14.93;11.23;;;-0.10;99.90;;;;;;5013048;28;20285;-69
2022/12/11 04:05:05;;;;;;;15.93;11.50;;;-0.10;99.90;;;;;;5012539;28;20421;-70
2022/12/11 04:07:30;;;;;;;17.63;11.73;;;0.00;99.90;;;;;;5012406;28;20421;-69
2022/12/11 04:09:56;;;;;;;17.50;12.57;;;-0.10;99.90;;;;;;5011737;28;20587;-69
2022/12/11 04:12:21;;;;;;;18.90;13.10;;;-0.20;99.90;;;;;;5012607;28;20246;-69
2022/12/11 04:15:02;;;;;;;18.83;12.50;;;-0.20;99.90;;;;;;5012321;28;20641;-69
2022/12/11 04:26:01;;;;;;;16.83;11.93;;;-0.10;99.90;;;;;;5012242;28;20417;-69
2022/12/11 04:28:27;;;;;;;16.17;11.43;;;-0.10;99.90;;;;;;5011898;28;20476;-69
2022/12/11 04:30:52;;;;;;;16.97;12.30;;;-0.10;99.90;;;;;;5012103;28;20453;-69
2022/12/11 04:33:18;;;;;;;19.63;11.97;;;-0.20;99.90;;;;;;5012171;28;20273;-69
2022/12/11 04:35:44;;;;;;;19.60;10.40;;;-0.10;99.90;;;;;;5012149;28;20198;-69
2022/12/11 04:38:09;;;;;;;13.93;11.23;;;-0.20;99.90;;;;;;5011803;28;20538;-70
2022/12/11 04:40:35;;;;;;;17.00;11.27;;;-0.20;99.90;;;;;;5011647;28;20195;-69
2022/12/11 04:43:00;;;;;;;16.73;11.43;;;-0.10;99.90;;;;;;5012163;28;20269;-69
2022/12/11 04:45:26;;;;;;;15.90;11.07;;;-0.20;99.90;;;;;;5011743;28;20175;-69
2022/12/11 04:47:51;;;;;;;17.77;11.30;;;-0.20;99.90;;;;;;5011918;28;20625;-71
2022/12/11 04:50:17;;;;;;;15.70;12.37;;;-0.20;99.90;;;;;;5028550;28;20193;-71
2022/12/11 04:52:43;;;;;;;17.63;12.17;;;-0.20;99.90;;;;;;5031670;28;20186;-71
2022/12/11 04:55:09;;;;;;;19.83;12.77;;;-0.30;99.90;;;;;;5031729;28;20549;-71
2022/12/11 04:57:35;;;;;;;20.53;12.33;;;-0.30;99.90;;;;;;5031638;28;20187;-71
2022/12/11 05:00:03;;;;;;;19.37;12.47;;;-0.40;99.90;;;;;;5031499;28;20475;-71
2022/12/11 05:02:29;;;;;;;19.20;12.07;;;-0.50;99.90;;;;;;5030892;28;20221;-71
2022/12/11 05:04:54;;;;;;;19.80;12.83;;;-0.50;99.90;;;;;;5031765;28;20496;-71
2022/12/11 05:07:20;;;;;;;17.20;13.20;;;-0.40;99.90;;;;;;5031854;28;20170;-71
2022/12/11 05:09:45;;;;;;;17.77;11.83;;;-0.40;99.90;;;;;;5034722;28;20588;-71
2022/12/11 05:12:11;;;;;;;16.60;11.93;;;-0.40;99.90;;;;;;5035210;28;20571;-71
2022/12/11 05:14:36;;;;;;;15.83;12.73;;;-0.30;99.90;;;;;;5035003;28;20239;-71
2022/12/11 05:17:02;;;;;;;15.80;11.50;;;-0.50;99.90;;;;;;5035092;28;20542;-71
2022/12/11 05:19:27;;;;;;;18.10;10.97;;;-0.40;99.90;;;;;;5034723;28;20202;-71
2022/12/11 05:21:53;;;;;;;18.20;13.47;;;-0.40;99.90;;;;;;5035037;28;20224;-71
2022/12/11 05:24:19;;;;;;;15.30;11.80;;;-0.40;99.90;;;;;;5035003;28;20555;-71
2022/12/11 05:26:44;;;;;;;16.30;12.10;;;-0.30;99.90;;;;;;5034919;28;20175;-71
2022/12/11 05:29:10;;;;;;;18.53;11.07;;;-0.40;99.90;;;;;;5034458;28;20539;-71
2022/12/11 05:31:35;;;;;;;14.67;10.97;;;-0.30;99.90;;;;;;5034921;28;20177;-71
2022/12/11 05:34:01;;;;;;;15.20;11.67;;;-0.40;99.90;;;;;;5034837;28;20274;-71
2022/12/11 05:36:29;;;;;;;16.30;11.43;;;-0.30;99.90;;;;;;5034829;28;20174;-71
2022/12/11 05:38:56;;;;;;;16.20;11.97;;;-0.50;99.90;;;;;;5034479;28;20174;-71
2022/12/11 05:41:24;;;;;;;18.67;13.93;;;-0.70;99.90;;;;;;5034607;28;20444;-70
2022/12/11 05:43:50;;;;;;;19.17;12.27;;;-0.70;99.90;;;;;;5034514;28;20461;-71
2022/12/11 05:46:17;;;;;;;17.50;12.20;;;-0.80;99.90;;;;;;5034691;28;20444;-71
2022/12/11 05:48:45;;;;;;;19.53;12.60;;;-0.90;99.90;;;;;;5034328;28;20413;-70
2022/12/11 05:51:11;;;;;;;18.50;13.23;;;-1.00;99.90;;;;;;5034526;28;20441;-71
2022/12/11 05:53:38;;;;;;;14.13;9.97;;;-1.00;99.90;;;;;;5034441;28;20897;-71
2022/12/11 05:56:11;;;;;;;18.93;12.20;;;-1.10;99.90;;;;;;5034373;28;20436;-71
2022/12/11 05:58:37;;;;;;;14.17;10.50;;;-1.10;99.90;;;;;;5034624;28;20416;-71
2022/12/11 06:01:08;;;;;;;17.83;13.43;;;-1.10;99.90;;;;;;5034199;28;20449;-70
2022/12/11 06:03:33;;;;;;;15.60;11.60;;;-1.10;99.90;;;;;;5034347;28;20241;-70
2022/12/11 06:06:03;;;;;;;17.73;12.57;;;-1.20;99.90;;;;;;5034447;28;20510;-71
2022/12/11 06:08:29;;;;;;;19.73;12.93;;;-1.20;99.90;;;;;;5033887;28;20170;-71
2022/12/11 06:10:54;;;;;;;23.40;11.90;;;-1.30;99.90;;;;;;5033909;28;20464;-70
2022/12/11 06:13:20;;;;;;;17.33;12.10;;;-1.30;99.90;;;;;;5034149;28;20516;-71
2022/12/11 06:15:46;;;;;;;16.83;12.90;;;-1.30;99.90;;;;;;5034323;28;20240;-71
2022/12/11 06:18:11;;;;;;;15.80;11.03;;;-1.40;99.90;;;;;;5033382;28;20240;-71
2022/12/11 06:20:37;;;;;;;18.07;11.37;;;-1.50;99.90;;;;;;5033839;28;20202;-71
2022/12/11 06:23:03;;;;;;;17.80;11.27;;;-1.50;99.90;;;;;;5033761;28;20229;-71
2022/12/11 06:25:29;;;;;;;17.77;12.90;;;-1.60;99.90;;;;;;5033862;28;20636;-71
2022/12/11 06:27:55;;;;;;;21.10;14.17;;;-1.60;99.90;;;;;;5033731;28;20224;-71
2022/12/11 06:30:20;;;;;;;17.47;12.40;;;-1.60;99.90;;;;;;5033373;28;20476;-71
2022/12/11 06:32:47;;;;;;;19.07;13.20;;;-1.60;99.90;;;;;;5033757;28;20171;-71
2022/12/11 06:35:13;;;;;;;23.83;14.30;;;-1.50;99.90;;;;;;5033735;28;20225;-71
2022/12/11 06:37:39;;;;;;;18.87;11.67;;;-1.60;99.90;;;;;;5033556;28;20420;-71
2022/12/11 06:40:06;;;;;;;18.00;12.70;;;-1.60;99.90;;;;;;5033360;28;20225;-71
2022/12/11 06:42:32;;;;;;;18.67;13.10;;;-1.60;99.90;;;;;;5033480;28;20472;-71
2022/12/11 06:44:58;;;;;;;20.43;12.70;;;-1.80;99.90;;;;;;5033550;28;20797;-71
2022/12/11 06:47:28;;;;;;;20.07;13.30;;;-1.80;99.90;;;;;;5033444;28;20166;-70
2022/12/11 06:49:54;;;;;;;18.70;12.37;;;-1.80;99.90;;;;;;5033163;28;20970;-71
2022/12/11 06:52:21;;;;;;;21.20;14.23;;;-1.90;99.90;;;;;;5033145;28;20451;-70
2022/12/11 06:54:46;;;;;;;20.93;13.13;;;-1.90;99.90;;;;;;5033367;28;20170;-71
2022/12/11 06:57:12;;;;;;;19.93;13.30;;;-1.90;99.90;;;;;;5033546;28;20508;-71
2022/12/11 06:59:38;;;;;;;24.47;12.30;;;-1.90;99.90;;;;;;5032922;28;20194;-71
2022/12/11 07:02:03;;;;;;;19.23;13.67;;;-1.80;99.90;;;;;;5033163;28;20589;-71
2022/12/11 07:04:29;;;;;;;20.60;13.90;;;-1.70;99.90;;;;;;5032968;28;20663;-71
2022/12/11 07:06:56;;;;;;;18.57;13.03;;;-1.70;99.90;;;;;;5032865;28;20417;-71
2022/12/11 07:09:22;;;;;;;19.77;12.10;;;-1.50;99.90;;;;;;5032419;28;20448;-70
2022/12/11 07:11:51;;;;;;;19.40;13.20;;;-1.50;99.90;;;;;;5032882;28;20431;-71
2022/12/11 07:14:17;;;;;;;19.20;12.10;;;-1.50;99.90;;;;;;5032840;28;20626;-70
2022/12/11 07:16:43;;;;;;;19.70;13.50;;;-1.40;99.90;;;;;;5032843;28;20431;-70
2022/12/11 07:19:08;;;;;;;22.97;14.10;;;-1.60;99.90;;;;;;5032405;28;20428;-70
2022/12/11 07:21:34;;;;;;;19.30;13.70;;;-1.50;99.90;;;;;;5032591;28;20231;-71
2022/12/11 07:24:00;;;;;;;23.60;14.50;;;-1.50;99.90;;;;;;5032551;28;20567;-71
2022/12/11 07:26:25;;;;;;;22.97;13.80;;;-1.40;99.90;;;;;;5032840;28;20257;-70
2022/12/11 07:28:51;;;;;;;20.83;14.23;;;-1.40;99.90;;;;;;5032440;28;20174;-71
2022/12/11 07:31:22;;;;;;;21.93;14.30;;;-1.40;99.90;;;;;;5031726;28;20663;-70
2022/12/11 07:33:52;;;;;;;19.83;14.80;;;-1.30;99.90;;;;;;5032572;28;20197;-70
2022/12/11 07:36:18;;;;;;;31.03;17.97;;;-1.20;99.90;;;;;;5032499;28;20984;-71
2022/12/11 07:38:43;;;;;;;20.30;13.47;;;-1.20;99.90;;;;;;5032454;28;20455;-70
2022/12/11 07:41:12;;;;;;;20.43;14.20;;;-1.20;99.90;;;;;;5032356;28;20269;-70
2022/12/11 07:43:38;;;;;;;19.10;13.30;;;-1.20;99.90;;;;;;5032203;28;20221;-70
2022/12/11 07:46:07;;;;;;;20.07;13.67;;;-1.10;99.90;;;;;;5032348;28;20413;-70
2022/12/11 07:48:35;;;;;;;21.93;14.60;;;-1.00;99.90;;;;;;5031971;28;20534;-70
2022/12/11 07:51:26;;;;;;;20.60;14.40;;;-0.80;99.90;;;;;;5032239;28;20437;-70
2022/12/11 07:53:54;;;;;;;25.70;17.27;;;-0.60;99.90;;;;;;5032333;28;20784;-70
2022/12/11 07:56:20;;;;;;;22.37;17.43;;;-0.70;99.90;;;;;;5032291;28;20421;-70
2022/12/11 07:58:46;;;;;;;26.73;18.50;;;-0.50;99.90;;;;;;5031942;28;20937;-70
2022/12/11 08:01:14;;;;;;;27.23;17.07;;;-0.40;99.90;;;;;;5031885;28;20195;-70
2022/12/11 08:03:40;;;;;;;21.53;14.47;;;0.00;99.90;;;;;;5032117;28;20833;-70
2022/12/11 08:06:05;;;;;;;25.43;14.90;;;0.30;99.90;;;;;;5032102;28;20417;-70
2022/12/11 08:08:31;;;;;;;24.00;14.23;;;0.60;99.90;;;;;;5030500;28;20174;-70
2022/12/11 08:11:01;;;;;;;21.10;14.70;;;1.00;99.90;;;;;;5031882;28;20267;-70
2022/12/11 08:13:26;;;;;;;20.90;13.50;;;1.80;99.90;;;;;;5031985;28;20545;-70
2022/12/11 08:15:52;;;;;;;16.73;13.27;;;2.60;99.90;;;;;;5031906;28;20413;-70
2022/12/11 08:18:17;;;;;;;20.87;15.70;;;3.30;99.90;;;;;;5031717;28;20183;-70
2022/12/11 08:20:43;;;;;;;20.37;15.07;;;3.70;99.90;;;;;;5031993;28;20236;-71
2022/12/11 08:23:08;;;;;;;22.30;17.87;;;4.00;99.90;;;;;;5031877;28;20694;-70
2022/12/11 08:25:34;;;;;;;20.63;16.20;;;4.10;99.90;;;;;;5031903;28;20640;-70
2022/12/11 08:28:00;;;;;;;26.00;18.80;;;4.30;99.90;;;;;;5031943;28;20257;-70
2022/12/11 08:30:25;;;;;;;19.80;16.93;;;4.10;99.90;;;;;;5031442;28;20859;-70
2022/12/11 08:32:51;;;;;;;20.50;14.77;;;3.90;99.90;;;;;;5031976;28;20185;-70
2022/12/11 08:35:16;;;;;;;19.60;13.63;;;3.50;99.90;;;;;;5031769;28;20229;-70
2022/12/11 08:37:42;;;;;;;16.07;12.67;;;3.20;99.90;;;;;;5031519;28;20170;-70
2022/12/11 08:40:09;;;;;;;17.80;13.87;;;2.90;99.90;;;;;;5023097;28;20194;-70
2022/12/11 08:42:35;;;;;;;20.10;14.97;;;2.70;99.90;;;;;;5032851;28;20198;-72
2022/12/11 08:45:00;;;;;;;18.43;13.53;;;2.40;99.90;;;;;;5035668;28;20527;-71
2022/12/11 08:47:26;;;;;;;20.30;13.90;;;2.10;99.90;;;;;;5035557;28;20166;-72
2022/12/11 08:49:51;;;;;;;26.63;17.77;;;2.10;99.90;;;;;;5035181;28;20222;-71
2022/12/11 08:52:17;;;;;;;20.30;14.77;;;2.00;99.90;;;;;;5035457;28;20262;-71
2022/12/11 08:54:43;;;;;;;24.27;15.50;;;2.00;99.90;;;;;;5035507;28;20198;-71
2022/12/11 08:57:08;;;;;;;18.80;13.57;;;2.00;99.90;;;;;;5035457;28;20663;-71
2022/12/11 08:59:34;;;;;;;20.87;15.73;;;1.90;99.90;;;;;;5034949;28;20554;-72
2022/12/11 09:01:59;;;;;;;19.70;14.43;;;2.00;99.90;;;;;;5035307;28;20534;-71
2022/12/11 09:04:25;;;;;;;19.60;14.13;;;2.10;99.90;;;;;;5035274;28;20728;-71
2022/12/11 09:06:50;;;;;;;21.10;14.50;;;2.10;99.90;;;;;;5035274;28;20170;-71
2022/12/11 09:09:16;;;;;;;28.30;21.77;;;2.10;99.90;;;;;;5034818;28;20193;-71
2022/12/11 09:11:41;;;;;;;29.30;21.00;;;2.00;99.90;;;;;;5035266;28;20205;-71
2022/12/11 09:14:07;;;;;;;22.07;17.43;;;1.70;99.90;;;;;;5035159;28;20186;-71
2022/12/11 09:16:36;;;;;;;21.50;17.27;;;1.50;99.90;;;;;;5035044;28;20277;-71
2022/12/11 09:19:06;;;;;;;24.57;17.43;;;1.50;99.90;;;;;;5034736;28;20544;-72
2022/12/11 09:21:32;;;;;;;19.83;14.63;;;1.60;99.90;;;;;;5035028;28;20427;-71
2022/12/11 09:23:59;;;;;;;20.40;15.50;;;1.70;99.90;;;;;;5034952;28;20460;-71
2022/12/11 09:26:27;;;;;;;18.57;14.20;;;1.70;99.90;;;;;;5034881;28;21166;-71
2022/12/11 09:28:53;;;;;;;18.80;14.00;;;1.80;99.90;;;;;;5034578;28;20478;-71
2022/12/11 09:31:22;;;;;;;19.53;14.90;;;2.00;99.90;;;;;;5034709;28;20441;-71
2022/12/11 09:33:49;;;;;;;21.97;16.73;;;2.00;99.90;;;;;;5033374;28;20421;-71
2022/12/11 09:36:15;;;;;;;17.27;13.30;;;2.20;99.90;;;;;;5034739;28;20574;-71
2022/12/11 09:38:43;;;;;;;20.63;14.30;;;2.40;99.90;;;;;;5034308;28;20508;-71
2022/12/11 09:41:21;;;;;;;17.23;12.37;;;2.60;99.90;;;;;;5034475;28;20235;-71
2022/12/11 09:43:57;;;;;;;19.47;12.80;;;2.70;99.90;;;;;;5034585;28;20545;-71
2022/12/11 09:46:25;;;;;;;17.20;12.90;;;2.50;99.90;;;;;;5034623;28;20425;-71
2022/12/11 09:48:52;;;;;;;18.50;13.70;;;2.40;99.90;;;;;;5034278;28;20815;-71
2022/12/11 09:51:27;;;;;;;15.20;11.63;;;2.50;99.90;;;;;;5034359;28;20443;-71
2022/12/11 09:53:56;;;;;;;17.00;12.83;;;2.60;99.90;;;;;;5033873;28;20423;-71
2022/12/11 09:56:25;;;;;;;15.83;11.80;;;3.00;99.90;;;;;;5033083;28;20808;-71
2022/12/11 09:59:06;;;;;;;20.67;12.90;;;3.10;99.90;;;;;;5034046;28;20424;-72
2022/12/11 10:01:35;;;;;;;17.53;11.93;;;3.10;99.90;;;;;;5034203;28;20413;-71
2022/12/11 10:04:20;;;;;;;15.90;12.07;;;2.70;99.90;;;;;;5034005;28;20551;-71
2022/12/11 10:06:57;;;;;;;16.20;12.03;;;2.40;99.90;;;;;;5033713;28;20424;-71
2022/12/11 10:09:48;;;;;;;16.03;10.73;;;2.50;99.90;;;;;;5033660;28;20455;-71
2022/12/11 10:12:34;;;;;;;16.83;11.80;;;2.10;99.90;;;;;;5034108;28;20413;-71
2022/12/11 10:15:00;;;;;;;14.07;10.97;;;2.10;99.90;;;;;;5033999;28;20417;-71
2022/12/11 10:17:32;;;;;;;18.40;12.60;;;2.20;99.90;;;;;;5033983;28;20455;-71
2022/12/11 10:20:22;;;;;;;17.70;11.50;;;2.40;99.90;;;;;;5033616;28;20194;-71
2022/12/11 10:22:51;;;;;;;16.23;11.23;;;2.40;99.90;;;;;;5022876;28;20490;-71
2022/12/11 10:25:40;;;;;;;15.57;12.20;;;2.20;99.90;;;;;;5028801;28;20842;-71
2022/12/11 10:28:13;;;;;;;16.70;11.80;;;2.20;99.90;;;;;;5019831;28;20428;-71
2022/12/11 10:30:52;;;;;;;14.60;11.30;;;2.30;99.90;;;;;;5012562;28;20437;-72
2022/12/11 10:33:53;;;;;;;18.97;14.00;;;2.30;99.90;;;;;;5013827;28;20797;-72
2022/12/11 10:36:29;;;;;;;20.43;12.77;;;2.30;99.90;;;;;;5013849;28;20417;-71
2022/12/11 10:38:54;;;;;;;15.07;10.97;;;2.20;99.90;;;;;;5013502;28;20544;-71
2022/12/11 10:41:57;;;;;;;15.83;11.90;;;2.10;99.90;;;;;;5013636;28;20990;-71
2022/12/11 10:44:28;;;;;;;22.03;12.53;;;2.00;99.90;;;;;;4972278;28;20689;-71
2022/12/11 10:47:05;;;;;;;15.30;12.07;;;1.90;99.90;;;;;;5006152;28;20434;-71
2022/12/11 10:49:33;;;;;;;14.80;10.30;;;1.80;99.90;;;;;;5013227;28;20445;-71
2022/12/11 10:52:01;;;;;;;15.43;12.17;;;2.20;99.90;;;;;;5013494;28;20422;-72
2022/12/11 10:54:34;;;;;;;17.07;12.17;;;2.40;99.90;;;;;;5013467;28;20476;-71
2022/12/11 10:57:02;;;;;;;14.47;10.63;;;2.50;99.90;;;;;;5013532;28;20915;-71
2022/12/11 10:59:31;;;;;;;15.97;11.50;;;2.60;99.90;;;;;;5012997;28;20476;-71
2022/12/11 11:01:57;;;;;;;15.80;11.27;;;2.50;99.90;;;;;;5013352;28;20497;-71
2022/12/11 11:04:32;;;;;;;14.80;10.73;;;2.60;99.90;;;;;;5012927;28;20592;-72
2022/12/11 11:07:27;;;;;;;16.03;12.27;;;2.70;99.90;;;;;;5012700;28;20693;-71
2022/12/11 11:10:10;;;;;;;16.27;11.73;;;2.70;99.90;;;;;;5012797;28;20925;-71
2022/12/11 11:12:48;;;;;;;16.93;12.03;;;2.70;99.90;;;;;;5013199;28;20421;-71
2022/12/11 11:15:26;;;;;;;15.27;10.90;;;2.80;99.90;;;;;;5013109;28;20418;-71
2022/12/11 11:17:59;;;;;;;17.33;11.43;;;2.90;99.90;;;;;;5013099;28;20437;-71
2022/12/11 11:20:28;;;;;;;20.50;13.33;;;2.90;99.90;;;;;;5012858;28;20804;-71
2022/12/11 11:22:56;;;;;;;19.80;13.00;;;2.80;99.90;;;;;;5012915;28;20826;-71
2022/12/11 11:25:24;;;;;;;18.20;12.03;;;2.80;99.90;;;;;;5012914;28;20467;-71
2022/12/11 11:27:56;;;;;;;14.87;10.93;;;2.70;99.90;;;;;;5012863;28;20417;-73
2022/12/11 11:30:32;;;;;;;16.53;12.60;;;2.60;99.90;;;;;;5012534;28;20430;-71
2022/12/11 11:33:14;;;;;;;16.27;11.57;;;2.60;99.90;;;;;;5012878;28;20413;-71
2022/12/11 11:35:54;;;;;;;15.90;10.60;;;2.50;99.90;;;;;;5012737;28;20428;-71
2022/12/11 11:38:37;;;;;;;13.60;10.67;;;2.50;99.90;;;;;;5012457;28;20433;-71
2022/12/11 11:41:16;;;;;;;17.33;11.73;;;2.50;99.90;;;;;;5012727;28;20449;-71
2022/12/11 11:43:41;;;;;;;15.73;11.90;;;2.40;99.90;;;;;;5012693;28;20453;-71
2022/12/11 11:46:11;;;;;;;16.13;11.23;;;2.30;99.90;;;;;;5012528;28;20784;-71
2022/12/11 11:49:06;;;;;;;17.97;12.23;;;2.50;99.90;;;;;;5012321;28;20198;-71
2022/12/11 11:51:55;;;;;;;15.83;11.43;;;2.50;99.90;;;;;;5008778;28;20426;-71
2022/12/11 11:54:29;;;;;;;18.07;11.33;;;2.40;99.90;;;;;;4981180;28;20418;-71
2022/12/11 11:56:56;;;;;;;16.47;11.87;;;2.30;99.90;;;;;;5012558;28;20413;-71
2022/12/11 11:59:30;;;;;;;16.07;12.00;;;2.20;99.90;;;;;;5012511;28;20424;-69
2022/12/11 12:01:56;;;;;;;17.50;10.90;;;2.00;99.90;;;;;;5012423;28;20414;-69
2022/12/11 12:04:23;;;;;;;16.13;11.23;;;2.00;99.90;;;;;;5012385;28;20457;-69
2022/12/11 12:07:12;;;;;;;20.10;12.40;;;2.20;99.90;;;;;;5012338;28;20433;-69
2022/12/11 12:10:01;;;;;;;20.07;13.90;;;2.50;99.90;;;;;;5011932;28;20816;-69
2022/12/11 12:12:35;;;;;;;16.43;11.43;;;2.60;99.90;;;;;;5006703;28;20462;-69
2022/12/11 12:15:17;;;;;;;18.90;12.53;;;2.80;99.90;;;;;;5012258;28;20436;-69
2022/12/11 12:17:56;;;;;;;19.40;11.77;;;3.00;99.90;;;;;;5010821;28;20445;-69
2022/12/11 12:20:31;;;;;;;16.70;11.97;;;3.20;99.90;;;;;;5011954;28;20434;-69
2022/12/11 12:23:20;;;;;;;15.70;11.80;;;3.30;99.90;;;;;;5012205;28;20484;-69
2022/12/11 12:25:59;;;;;;;18.67;12.60;;;3.40;99.90;;;;;;5012177;28;20410;-69
2022/12/11 12:28:41;;;;;;;15.93;11.13;;;3.40;99.90;;;;;;5011905;28;20421;-69
2022/12/11 12:31:24;;;;;;;17.60;12.30;;;3.40;99.90;;;;;;5012152;28;20434;-69
2022/12/11 12:33:56;;;;;;;14.97;11.73;;;2.90;99.90;;;;;;5012146;28;20962;-69
2022/12/11 12:36:49;;;;;;;15.93;12.13;;;2.90;99.90;;;;;;5012121;28;20426;-69
2022/12/11 12:39:33;;;;;;;17.57;11.70;;;3.20;99.90;;;;;;5011851;28;20508;-69
2022/12/11 12:42:15;;;;;;;18.43;10.53;;;3.70;99.90;;;;;;5012113;28;20791;-69
2022/12/11 12:44:58;;;;;;;12.03;10.60;;;4.30;99.90;;;;;;5010789;28;20500;-69
2022/12/11 12:47:27;;;;;;;15.87;12.60;;;5.40;99.90;;;;;;5011523;28;20433;-69
2022/12/11 12:49:54;;;;;;;15.53;12.10;;;6.30;99.90;;;;;;5011649;28;20473;-69
2022/12/11 12:52:29;;;;;;;16.30;13.30;;;7.20;99.90;;;;;;5011884;28;20501;-69